createdAt,value
2022-08-20T00:01:08.816Z,98361.22
2022-08-20T00:03:39.179Z,98365.22
2022-08-20T00:06:09.967Z,98368.28
2022-08-20T00:08:38.585Z,98368.50
2022-08-20T00:11:07.310Z,98369.97
2022-08-20T00:13:44.911Z,98369.38
2022-08-20T00:16:13.118Z,98366.25
2022-08-20T00:18:41.133Z,98368.13
2022-08-20T00:21:10.533Z,98366.41
2022-08-20T00:23:38.805Z,98369.38
2022-08-20T00:26:06.502Z,98367.06
2022-08-20T00:28:33.120Z,98365.00
2022-08-20T00:30:59.900Z,98374.53
2022-08-20T00:33:26.312Z,98375.16
2022-08-20T00:35:56.269Z,98371.59
2022-08-20T00:38:24.646Z,98367.22
2022-08-20T00:40:54.801Z,98364.53
2022-08-20T00:43:43.342Z,98368.84
2022-08-20T00:46:17.709Z,98369.81
2022-08-20T00:48:50.196Z,98367.53
2022-08-20T00:51:32.338Z,98363.16
2022-08-20T00:54:06.833Z,98369.66
2022-08-20T00:56:34.022Z,98369.16
2022-08-20T00:59:01.881Z,98369.66
2022-08-20T01:01:28.723Z,98372.41
2022-08-20T01:03:56.548Z,98372.56
2022-08-20T01:06:25.127Z,98376.03
2022-08-20T01:08:52.149Z,98385.00
2022-08-20T01:11:22.459Z,98377.47
2022-08-20T01:13:49.494Z,98386.22
2022-08-20T01:16:26.556Z,98377.91
2022-08-20T01:18:57.598Z,98385.13
2022-08-20T01:21:28.300Z,98380.16
2022-08-20T01:24:17.031Z,98381.13
2022-08-20T01:26:46.890Z,98386.16
2022-08-20T01:29:19.070Z,98384.88
2022-08-20T01:31:45.837Z,98388.47
2022-08-20T01:34:15.157Z,98392.66
2022-08-20T01:36:46.851Z,98384.28
2022-08-20T01:39:17.471Z,98386.38
2022-08-20T01:42:18.135Z,98396.59
2022-08-20T01:44:48.397Z,98396.22
2022-08-20T01:47:23.792Z,98393.22
2022-08-20T01:49:54.826Z,98383.81
2022-08-20T01:52:33.387Z,98385.34
2022-08-20T01:55:00.050Z,98390.47
2022-08-20T01:57:26.991Z,98383.94
2022-08-20T01:59:54.081Z,98394.63
2022-08-20T02:02:20.684Z,98398.34
2022-08-20T02:04:47.545Z,98389.13
2022-08-20T02:07:18.531Z,98396.31
2022-08-20T02:09:46.321Z,98389.00
2022-08-20T02:12:14.308Z,98390.09
2022-08-20T02:14:47.149Z,98388.38
2022-08-20T02:17:14.553Z,98392.28
2022-08-20T02:19:45.566Z,98391.19
2022-08-20T02:22:55.666Z,98398.63
2022-08-20T02:25:26.322Z,98390.38
2022-08-20T02:27:55.009Z,98397.84
2022-08-20T02:30:33.156Z,98397.13
2022-08-20T02:33:02.680Z,98401.69
2022-08-20T02:35:31.709Z,98398.59
2022-08-20T02:38:00.596Z,98393.97
2022-08-20T02:40:31.049Z,98398.38
2022-08-20T02:42:59.767Z,98397.81
2022-08-20T02:45:26.567Z,98395.25
2022-08-20T02:47:54.006Z,98393.41
2022-08-20T02:50:23.872Z,98392.28
2022-08-20T02:52:51.765Z,98398.91
2022-08-20T02:55:28.234Z,98395.00
2022-08-20T02:57:59.931Z,98395.16
2022-08-20T03:00:32.297Z,98398.16
2022-08-20T03:03:06.988Z,98402.97
2022-08-20T03:05:33.835Z,98399.00
2022-08-20T03:08:00.357Z,98406.03
2022-08-20T03:10:30.570Z,98392.09
2022-08-20T03:12:57.039Z,98386.41
2022-08-20T03:15:23.842Z,98385.78
2022-08-20T03:17:50.389Z,98391.22
2022-08-20T03:20:17.305Z,98395.03
2022-08-20T03:22:49.302Z,98392.94
2022-08-20T03:25:16.596Z,98389.81
2022-08-20T03:27:43.573Z,98399.13
2022-08-20T03:30:14.038Z,98389.13
2022-08-20T03:32:40.746Z,98394.00
2022-08-20T03:35:10.893Z,98400.94
2022-08-20T03:37:37.850Z,98389.72
2022-08-20T03:40:12.129Z,98391.47
2022-08-20T03:42:39.886Z,98383.53
2022-08-20T03:45:08.203Z,98392.25
2022-08-20T03:47:34.777Z,98392.59
2022-08-20T03:50:06.067Z,98397.34
2022-08-20T03:52:32.547Z,98403.81
2022-08-20T03:54:58.972Z,98404.22
2022-08-20T03:57:25.541Z,98400.28
2022-08-20T03:59:51.977Z,98400.13
2022-08-20T04:02:25.088Z,98407.19
2022-08-20T04:04:51.807Z,98410.47
2022-08-20T04:07:25.507Z,98408.75
2022-08-20T04:09:53.013Z,98411.09
2022-08-20T04:12:19.536Z,98413.47
2022-08-20T04:14:46.028Z,98417.78
2022-08-20T04:17:14.093Z,98411.63
2022-08-20T04:19:41.292Z,98418.81
2022-08-20T04:22:08.041Z,98424.63
2022-08-20T04:24:35.541Z,98417.91
2022-08-20T04:27:05.288Z,98427.59
2022-08-20T04:29:34.892Z,98421.59
2022-08-20T04:32:05.799Z,98426.78
2022-08-20T04:34:33.090Z,98426.06
2022-08-20T04:36:59.562Z,98433.44
2022-08-20T04:39:26.760Z,98424.06
2022-08-20T04:41:53.203Z,98431.16
2022-08-20T04:44:21.702Z,98419.94
2022-08-20T04:46:48.839Z,98422.69
2022-08-20T04:49:15.304Z,98437.88
2022-08-20T04:51:41.899Z,98419.19
2022-08-20T04:54:08.444Z,98431.25
2022-08-20T04:56:39.597Z,98431.41
2022-08-20T04:59:07.480Z,98428.53
2022-08-20T05:01:34.560Z,98435.97
2022-08-20T05:04:01.534Z,98438.28
2022-08-20T05:06:31.590Z,98433.91
2022-08-20T05:09:00.625Z,98436.09
2022-08-20T05:11:36.156Z,98434.03
2022-08-20T05:14:08.532Z,98437.75
2022-08-20T05:16:38.050Z,98432.75
2022-08-20T05:19:06.567Z,98439.00
2022-08-20T05:21:33.005Z,98436.03
2022-08-20T05:23:59.550Z,98444.63
2022-08-20T05:26:26.433Z,98439.81
2022-08-20T05:28:58.227Z,98444.00
2022-08-20T05:31:31.648Z,98456.47
2022-08-20T05:34:12.079Z,98449.22
2022-08-20T05:36:49.992Z,98449.13
2022-08-20T05:39:19.087Z,98454.50
2022-08-20T05:41:45.583Z,98461.78
2022-08-20T05:44:15.450Z,98459.84
2022-08-20T05:46:44.513Z,98472.09
2022-08-20T05:49:13.802Z,98472.34
2022-08-20T05:51:40.631Z,98472.66
2022-08-20T05:54:07.457Z,98469.03
2022-08-20T05:56:34.877Z,98469.44
2022-08-20T05:59:04.741Z,98468.16
2022-08-20T06:01:32.619Z,98475.47
2022-08-20T06:04:18.018Z,98475.63
2022-08-20T06:06:46.892Z,98469.09
2022-08-20T06:09:16.159Z,98471.88
2022-08-20T06:11:42.711Z,98469.78
2022-08-20T06:14:09.275Z,98469.22
2022-08-20T06:16:37.384Z,98467.94
2022-08-20T06:19:05.011Z,98472.88
2022-08-20T06:21:32.159Z,98467.88
2022-08-20T06:24:01.191Z,98463.31
2022-08-20T06:26:30.391Z,98464.84
2022-08-20T06:29:00.841Z,98455.47
2022-08-20T06:31:27.772Z,98468.06
2022-08-20T06:33:54.512Z,98465.63
2022-08-20T06:36:21.463Z,98475.09
2022-08-20T06:38:48.057Z,98467.44
2022-08-20T06:41:14.541Z,98467.59
2022-08-20T06:43:41.117Z,98474.06
2022-08-20T06:46:08.174Z,98473.97
2022-08-20T06:48:34.612Z,98475.69
2022-08-20T06:51:01.512Z,98473.47
2022-08-20T06:53:28.953Z,98469.09
2022-08-20T06:55:58.860Z,98466.03
2022-08-20T06:58:37.803Z,98475.41
2022-08-20T07:01:10.786Z,98470.53
2022-08-20T07:03:55.877Z,98477.88
2022-08-20T07:06:25.367Z,98473.72
2022-08-20T07:08:52.450Z,98479.84
2022-08-20T07:11:26.324Z,98473.47
2022-08-20T07:13:55.780Z,98470.22
2022-08-20T07:16:22.267Z,98471.38
2022-08-20T07:18:48.729Z,98472.84
2022-08-20T07:21:17.408Z,98463.00
2022-08-20T07:23:43.977Z,98461.84
2022-08-20T07:26:10.738Z,98456.59
2022-08-20T07:28:37.155Z,98466.13
2022-08-20T07:31:22.206Z,98462.34
2022-08-20T07:33:50.373Z,98459.34
2022-08-20T07:36:18.085Z,98456.22
2022-08-20T07:38:52.549Z,98466.97
2022-08-20T07:41:19.944Z,98470.88
2022-08-20T07:43:47.718Z,98474.34
2022-08-20T07:46:20.585Z,98472.31
2022-08-20T07:48:49.948Z,98473.63
2022-08-20T07:51:19.684Z,98466.31
2022-08-20T07:53:47.278Z,98473.75
2022-08-20T07:56:19.409Z,98474.78
2022-08-20T07:58:50.023Z,98484.78
2022-08-20T08:01:26.094Z,98489.44
2022-08-20T08:03:52.977Z,98489.69
2022-08-20T08:06:29.569Z,98486.47
2022-08-20T08:09:09.691Z,98490.53
2022-08-20T08:11:39.362Z,98497.50
2022-08-20T08:14:08.638Z,98501.56
2022-08-20T08:16:36.647Z,98505.19
2022-08-20T08:19:07.435Z,98500.06
2022-08-20T08:21:34.050Z,98494.13
2022-08-20T08:24:00.616Z,98493.66
2022-08-20T08:26:28.948Z,98492.88
2022-08-20T08:28:55.956Z,98496.25
2022-08-20T08:31:22.444Z,98495.41
2022-08-20T08:33:48.951Z,98492.75
2022-08-20T08:36:16.887Z,98494.59
2022-08-20T08:38:45.332Z,98496.63
2022-08-20T08:41:20.353Z,98501.56
2022-08-20T08:43:53.084Z,98504.06
2022-08-20T08:46:25.390Z,98512.69
2022-08-20T08:48:54.926Z,98519.56
2022-08-20T08:51:30.103Z,98525.25
2022-08-20T08:53:57.613Z,98523.94
2022-08-20T08:56:27.195Z,98524.50
2022-08-20T08:58:55.586Z,98528.34
2022-08-20T09:01:54.244Z,98527.59
2022-08-20T09:04:12.801Z,98535.94
2022-08-20T09:06:40.433Z,98544.72
2022-08-20T09:09:21.491Z,98542.34
2022-08-20T09:11:53.182Z,98558.66
2022-08-20T09:14:20.732Z,98547.31
2022-08-20T09:16:52.668Z,98551.78
2022-08-20T09:19:20.768Z,98552.25
2022-08-20T09:21:47.257Z,98549.63
2022-08-20T09:24:13.691Z,98549.50
2022-08-20T09:26:40.147Z,98547.31
2022-08-20T09:29:06.763Z,98551.44
2022-08-20T09:31:33.586Z,98536.31
2022-08-20T09:34:00.176Z,98539.72
2022-08-20T09:36:31.585Z,98534.50
2022-08-20T09:38:59.761Z,98537.03
2022-08-20T09:41:26.226Z,98535.81
2022-08-20T09:43:52.784Z,98535.91
2022-08-20T09:46:19.309Z,98533.84
2022-08-20T09:48:53.421Z,98540.38
2022-08-20T09:51:19.961Z,98522.41
2022-08-20T09:53:46.860Z,98518.63
2022-08-20T09:56:13.685Z,98520.06
2022-08-20T09:58:50.791Z,98516.47
2022-08-20T10:01:20.359Z,98512.69
2022-08-20T10:03:49.170Z,98511.59
2022-08-20T10:06:17.861Z,98507.13
2022-08-20T10:08:44.497Z,98505.63
2022-08-20T10:11:11.758Z,98501.59
2022-08-20T10:13:38.240Z,98492.59
2022-08-20T10:16:05.218Z,98504.94
2022-08-20T10:18:31.754Z,98494.94
2022-08-20T10:20:58.198Z,98500.38
2022-08-20T10:23:24.701Z,98496.28
2022-08-20T10:25:51.188Z,98492.38
2022-08-20T10:28:17.766Z,98498.13
2022-08-20T10:30:45.149Z,98497.00
2022-08-20T10:33:11.631Z,98488.38
2022-08-20T10:35:38.110Z,98493.47
2022-08-20T10:38:04.684Z,98490.97
2022-08-20T10:40:31.275Z,98487.31
2022-08-20T10:42:57.734Z,98483.31
2022-08-20T10:45:25.742Z,98492.81
2022-08-20T10:47:52.412Z,98482.59
2022-08-20T10:50:20.043Z,98478.06
2022-08-20T10:52:47.257Z,98476.16
2022-08-20T10:55:14.292Z,98471.06
2022-08-20T10:57:43.377Z,98472.56
2022-08-20T11:00:13.547Z,98472.59
2022-08-20T11:02:40.032Z,98472.25
2022-08-20T11:05:07.998Z,98470.84
2022-08-20T11:07:50.561Z,98465.72
2022-08-20T11:10:22.943Z,98464.91
2022-08-20T11:12:49.424Z,98466.97
2022-08-20T11:15:15.934Z,98459.94
2022-08-20T11:17:43.716Z,98454.25
2022-08-20T11:20:12.786Z,98455.97
2022-08-20T11:22:39.250Z,98461.38
2022-08-20T11:25:07.052Z,98461.97
2022-08-20T11:27:36.808Z,98456.41
2022-08-20T11:30:08.804Z,98459.63
2022-08-20T11:32:35.633Z,98468.91
2022-08-20T11:35:09.980Z,98455.13
2022-08-20T11:37:45.529Z,98459.28
2022-08-20T11:40:12.786Z,98462.81
2022-08-20T11:42:58.398Z,98467.78
2022-08-20T11:45:26.136Z,98459.75
2022-08-20T11:47:52.638Z,98468.09
2022-08-20T11:50:21.199Z,98465.47
2022-08-20T11:52:47.812Z,98465.97
2022-08-20T11:55:16.963Z,98457.47
2022-08-20T11:57:47.097Z,98454.06
2022-08-20T12:00:19.151Z,98447.22
2022-08-20T12:02:46.151Z,98448.19
2022-08-20T12:05:12.813Z,98456.91
2022-08-20T12:07:39.571Z,98449.88
2022-08-20T12:10:07.421Z,98441.97
2022-08-20T12:12:33.990Z,98442.59
2022-08-20T12:15:00.491Z,98437.16
2022-08-20T12:17:29.448Z,98441.38
2022-08-20T12:19:58.547Z,98443.41
2022-08-20T12:22:25.655Z,98446.28
2022-08-20T12:24:56.002Z,98432.16
2022-08-20T12:27:30.017Z,98438.97
2022-08-20T12:30:01.587Z,98436.09
2022-08-20T12:32:32.214Z,98428.19
2022-08-20T12:34:59.129Z,98427.59
2022-08-20T12:37:28.909Z,98432.00
2022-08-20T12:39:58.942Z,98433.91
2022-08-20T12:42:26.657Z,98427.50
2022-08-20T12:44:53.189Z,98430.31
2022-08-20T12:47:25.776Z,98427.56
2022-08-20T12:50:01.285Z,98418.75
2022-08-20T12:52:29.769Z,98417.78
2022-08-20T12:54:57.051Z,98426.88
2022-08-20T12:57:36.043Z,98416.16
2022-08-20T13:00:13.569Z,98426.78
2022-08-20T13:02:41.236Z,98425.38
2022-08-20T13:05:12.561Z,98423.41
2022-08-20T13:07:40.404Z,98424.88
2022-08-20T13:10:08.798Z,98430.75
2022-08-20T13:12:35.563Z,98423.91
2022-08-20T13:15:02.179Z,98425.28
2022-08-20T13:17:38.077Z,98416.19
2022-08-20T13:20:09.082Z,98424.25
2022-08-20T13:22:35.636Z,98421.94
2022-08-20T13:25:02.167Z,98425.13
2022-08-20T13:27:28.621Z,98423.06
2022-08-20T13:29:58.794Z,98418.84
2022-08-20T13:32:26.059Z,98423.66
2022-08-20T13:34:52.559Z,98426.53
2022-08-20T13:37:26.674Z,98416.19
2022-08-20T13:39:54.128Z,98419.41
2022-08-20T13:42:21.302Z,98421.69
2022-08-20T13:44:48.046Z,98417.44
2022-08-20T13:47:15.752Z,98421.16
2022-08-20T13:49:42.356Z,98413.00
2022-08-20T13:52:08.864Z,98413.03
2022-08-20T13:54:35.427Z,98420.28
2022-08-20T13:57:10.475Z,98410.31
2022-08-20T13:59:43.096Z,98400.41
2022-08-20T14:02:11.181Z,98409.69
2022-08-20T14:04:38.776Z,98408.34
2022-08-20T14:07:13.877Z,98412.44
2022-08-20T14:09:42.164Z,98408.72
2022-08-20T14:12:09.895Z,98400.34
2022-08-20T14:14:36.762Z,98409.69
2022-08-20T14:17:19.110Z,98406.56
2022-08-20T14:19:47.903Z,98411.28
2022-08-20T14:22:17.327Z,98418.78
2022-08-20T14:24:45.525Z,98415.69
2022-08-20T14:27:14.029Z,98417.53
2022-08-20T14:29:42.651Z,98419.66
2022-08-20T14:32:10.383Z,98418.31
2022-08-20T14:34:37.341Z,98418.81
2022-08-20T14:37:19.839Z,98428.84
2022-08-20T14:39:51.990Z,98426.34
2022-08-20T14:42:18.949Z,98431.22
2022-08-20T14:44:45.436Z,98423.56
2022-08-20T14:47:25.991Z,98429.28
2022-08-20T14:49:54.479Z,98427.38
2022-08-20T14:52:22.752Z,98430.97
2022-08-20T14:54:50.269Z,98435.50
2022-08-20T14:57:19.266Z,98437.50
2022-08-20T14:59:47.228Z,98446.06
2022-08-20T15:02:16.357Z,98430.84
2022-08-20T15:04:43.323Z,98434.00
2022-08-20T15:07:27.834Z,98425.69
2022-08-20T15:09:55.360Z,98425.72
2022-08-20T15:12:22.700Z,98431.56
2022-08-20T15:14:49.152Z,98435.78
2022-08-20T15:17:21.553Z,98438.03
2022-08-20T15:19:48.674Z,98434.56
2022-08-20T15:22:15.660Z,98437.19
2022-08-20T15:24:42.730Z,98432.25
2022-08-20T15:27:22.770Z,98434.34
2022-08-20T15:29:50.379Z,98441.34
2022-08-20T15:32:17.557Z,98434.59
2022-08-20T15:34:44.181Z,98428.13
2022-08-20T15:37:22.451Z,98425.56
2022-08-20T15:39:50.494Z,98428.03
2022-08-20T15:42:18.200Z,98420.81
2022-08-20T15:44:45.513Z,98424.56
2022-08-20T15:47:34.656Z,98429.97
2022-08-20T15:50:13.977Z,98427.47
2022-08-20T15:52:44.660Z,98429.06
2022-08-20T15:55:15.000Z,98425.97
2022-08-20T15:57:53.145Z,98428.16
2022-08-20T16:00:38.891Z,98436.53
2022-08-20T16:03:11.183Z,98440.00
2022-08-20T16:05:48.058Z,98443.50
2022-08-20T16:08:42.454Z,98433.97
2022-08-20T16:11:36.620Z,98436.44
2022-08-20T16:14:15.889Z,98434.97
2022-08-20T16:16:48.581Z,98439.59
2022-08-20T16:19:22.961Z,98433.19
2022-08-20T16:21:51.459Z,98445.03
2022-08-20T16:24:19.894Z,98432.84
2022-08-20T16:27:08.016Z,98437.81
2022-08-20T16:29:55.113Z,98435.91
2022-08-20T16:32:30.997Z,98440.63
2022-08-20T16:34:59.932Z,98443.69
2022-08-20T16:37:37.902Z,98448.19
2022-08-20T16:40:07.350Z,98456.56
2022-08-20T16:42:38.930Z,98456.31
2022-08-20T16:45:11.663Z,98459.00
2022-08-20T16:47:40.738Z,98460.53
2022-08-20T16:50:16.723Z,98461.19
2022-08-20T16:52:46.582Z,98466.31
2022-08-20T16:55:14.250Z,98455.75
2022-08-20T16:57:40.838Z,98456.47
2022-08-20T17:00:20.254Z,98460.56
2022-08-20T17:02:54.151Z,98459.75
2022-08-20T17:05:22.325Z,98460.38
2022-08-20T17:08:03.379Z,98461.38
2022-08-20T17:10:40.447Z,98457.09
2022-08-20T17:13:13.042Z,98465.50
2022-08-20T17:15:43.582Z,98455.41
2022-08-20T17:18:22.624Z,98464.41
2022-08-20T17:20:49.585Z,98462.84
2022-08-20T17:23:18.371Z,98473.25
2022-08-20T17:26:15.985Z,98467.47
2022-08-20T17:28:52.578Z,98475.59
2022-08-20T17:31:45.772Z,98472.31
2022-08-20T17:34:24.109Z,98477.16
2022-08-20T17:37:10.909Z,98475.19
2022-08-20T17:39:47.198Z,98482.53
2022-08-20T17:42:25.818Z,98489.34
2022-08-20T17:45:24.842Z,98491.47
2022-08-20T17:47:52.658Z,98490.88
2022-08-20T17:50:24.075Z,98498.25
2022-08-20T17:52:55.203Z,98489.25
2022-08-20T17:55:22.269Z,98504.75
2022-08-20T17:57:54.563Z,98499.41
2022-08-20T18:00:26.815Z,98507.25
2022-08-20T18:02:58.648Z,98510.28
2022-08-20T18:05:29.541Z,98505.59
2022-08-20T18:08:11.287Z,98506.16
2022-08-20T18:11:00.722Z,98511.44
2022-08-20T18:14:00.546Z,98515.00
2022-08-20T18:16:42.445Z,98513.44
2022-08-20T18:19:17.441Z,98516.41
2022-08-20T18:22:18.316Z,98515.63
2022-08-20T18:24:53.386Z,98519.16
2022-08-20T18:27:25.236Z,98519.50
2022-08-20T18:29:59.148Z,98529.31
2022-08-20T18:32:30.885Z,98533.19
2022-08-20T18:35:35.729Z,98534.66
2022-08-20T18:38:12.444Z,98538.88
2022-08-20T18:40:39.551Z,98546.88
2022-08-20T18:43:26.052Z,98550.31
2022-08-20T18:45:52.703Z,98550.16
2022-08-20T18:48:22.540Z,98545.72
2022-08-20T18:50:55.529Z,98544.31
2022-08-20T18:53:33.959Z,98557.06
2022-08-20T18:56:13.572Z,98554.97
2022-08-20T18:58:53.724Z,98554.09
2022-08-20T19:01:20.323Z,98560.03
2022-08-20T19:03:54.518Z,98551.00
2022-08-20T19:06:33.384Z,98557.38
2022-08-20T19:09:18.062Z,98558.81
2022-08-20T19:12:02.914Z,98561.88
2022-08-20T19:14:33.032Z,98568.28
2022-08-20T19:17:06.184Z,98579.22
2022-08-20T19:19:33.240Z,98580.16
2022-08-20T19:22:02.165Z,98580.91
2022-08-20T19:24:35.315Z,98580.31
2022-08-20T19:27:08.419Z,98578.91
2022-08-20T19:29:46.101Z,98573.34
2022-08-20T19:32:21.353Z,98579.81
2022-08-20T19:35:00.072Z,98568.00
2022-08-20T19:37:39.867Z,98576.81
2022-08-20T19:40:33.186Z,98577.25
2022-08-20T19:43:11.282Z,98574.56
2022-08-20T19:45:45.239Z,98583.50
2022-08-20T19:48:49.914Z,98580.78
2022-08-20T19:51:27.669Z,98588.94
2022-08-20T19:53:54.587Z,98596.63
2022-08-20T19:56:26.831Z,98592.25
2022-08-20T19:59:00.425Z,98586.41
2022-08-20T20:01:27.946Z,98591.59
2022-08-20T20:04:15.379Z,98590.78
2022-08-20T20:06:46.236Z,98588.66
2022-08-20T20:09:26.126Z,98601.78
2022-08-20T20:11:58.761Z,98594.91
2022-08-20T20:14:34.135Z,98590.09
2022-08-20T20:17:04.085Z,98589.09
2022-08-20T20:19:30.679Z,98587.63
2022-08-20T20:22:23.611Z,98589.50
2022-08-20T20:25:13.262Z,98593.03
2022-08-20T20:27:41.081Z,98588.88
2022-08-20T20:30:12.193Z,98583.00
2022-08-20T20:32:48.515Z,98587.09
2022-08-20T20:35:36.701Z,98579.34
2022-08-20T20:38:09.277Z,98590.72
2022-08-20T20:40:55.120Z,98593.13
2022-08-20T20:43:37.095Z,98583.56
2022-08-20T20:46:18.562Z,98583.81
2022-08-20T20:48:48.489Z,98582.69
2022-08-20T20:51:38.569Z,98584.19
2022-08-20T20:54:21.004Z,98585.59
2022-08-20T20:57:06.784Z,98590.34
2022-08-20T20:59:35.899Z,98578.81
2022-08-20T21:02:03.136Z,98586.81
2022-08-20T21:04:30.101Z,98576.81
2022-08-20T21:06:58.935Z,98581.13
2022-08-20T21:09:26.047Z,98581.44
2022-08-20T21:11:52.524Z,98582.19
2022-08-20T21:14:19.196Z,98583.56
2022-08-20T21:16:46.099Z,98586.13
2022-08-20T21:19:13.253Z,98583.47
2022-08-20T21:21:43.750Z,98578.50
2022-08-20T21:24:10.345Z,98584.16
2022-08-20T21:26:37.840Z,98592.78
2022-08-20T21:29:06.562Z,98595.28
2022-08-20T21:31:36.148Z,98598.81
2022-08-20T21:34:03.074Z,98596.25
2022-08-20T21:36:29.577Z,98606.19
2022-08-20T21:38:56.238Z,98603.66
2022-08-20T21:41:29.942Z,98594.53
2022-08-20T21:43:58.590Z,98600.47
2022-08-20T21:46:28.406Z,98596.13
2022-08-20T21:48:55.311Z,98602.16
2022-08-20T21:51:21.733Z,98596.28
2022-08-20T21:53:48.245Z,98596.56
2022-08-20T21:56:14.709Z,98596.88
2022-08-20T21:58:49.830Z,98601.13
2022-08-20T22:01:17.351Z,98606.59
2022-08-20T22:03:43.872Z,98600.56
2022-08-20T22:06:15.959Z,98603.16
2022-08-20T22:08:42.447Z,98610.38
2022-08-20T22:11:10.808Z,98608.53
2022-08-20T22:13:38.976Z,98616.66
2022-08-20T22:16:07.653Z,98620.75
2022-08-20T22:18:34.974Z,98612.84
2022-08-20T22:21:02.561Z,98603.16
2022-08-20T22:23:29.193Z,98607.78
2022-08-20T22:25:55.703Z,98614.84
2022-08-20T22:28:22.518Z,98610.47
2022-08-20T22:30:49.072Z,98607.13
2022-08-20T22:33:20.311Z,98607.53
2022-08-20T22:35:49.908Z,98597.72
2022-08-20T22:38:17.061Z,98602.69
2022-08-20T22:40:44.476Z,98607.50
2022-08-20T22:43:11.626Z,98602.25
2022-08-20T22:45:39.467Z,98595.81
2022-08-20T22:48:07.074Z,98595.09
2022-08-20T22:50:33.778Z,98604.22
2022-08-20T22:53:01.777Z,98608.94
2022-08-20T22:55:28.230Z,98606.47
2022-08-20T22:57:55.047Z,98593.13
2022-08-20T23:00:24.123Z,98609.69
2022-08-20T23:02:54.967Z,98619.75
2022-08-20T23:05:24.275Z,98616.19
2022-08-20T23:07:54.148Z,98611.72
2022-08-20T23:10:21.938Z,98612.44
2022-08-20T23:12:48.901Z,98598.13
2022-08-20T23:15:15.457Z,98603.09
2022-08-20T23:17:42.105Z,98602.72
2022-08-20T23:20:10.888Z,98602.38
2022-08-20T23:22:37.563Z,98611.16
2022-08-20T23:25:06.444Z,98600.41
2022-08-20T23:27:40.794Z,98599.69
2022-08-20T23:30:07.915Z,98602.41
2022-08-20T23:32:34.443Z,98596.44
2022-08-20T23:35:00.936Z,98604.03
2022-08-20T23:37:27.403Z,98606.88
2022-08-20T23:39:53.915Z,98608.25
2022-08-20T23:42:20.570Z,98610.03
2022-08-20T23:44:47.054Z,98607.31
2022-08-20T23:47:19.583Z,98607.06
2022-08-20T23:49:46.625Z,98608.16
2022-08-20T23:52:13.158Z,98607.78
2022-08-20T23:54:39.869Z,98599.56
2022-08-20T23:57:08.442Z,98594.50
2022-08-20T23:59:35.723Z,98592.91
